Time;durP1;ratioP1;P1;durP2;ratioP2;P2;SDS_P1;SDS_P2;PMS_P1;PMS_P2;Temp;Humidity;BMP_temperature;BMP_pressure;BME280_temperature;BME280_humidity;BME280_pressure;Samples;Min_cycle;Max_cycle;Signal;HPM_P1;HPM_P2
2022/03/15 00:00:22;;;;;;;11.50;9.53;;;4.50;99.90;;;5.37;81.43;99045.88;5204100;28;20219;-57
2022/03/15 00:02:57;;;;;;;11.50;9.10;;;4.50;99.90;;;5.34;81.42;99043.94;5203869;28;20208;-57
2022/03/15 00:05:31;;;;;;;10.53;8.93;;;4.50;99.90;;;5.36;81.45;99042.44;5205269;28;20198;-57
2022/03/15 00:08:06;;;;;;;9.47;8.47;;;4.40;99.90;;;5.40;81.61;99046.16;5204870;28;20685;-57
2022/03/15 00:10:39;;;;;;;8.87;8.03;;;4.50;99.90;;;5.40;81.37;99059.72;5203769;28;20230;-56
2022/03/15 00:13:13;;;;;;;8.03;7.33;;;4.50;99.90;;;5.35;81.04;99054.94;5205506;28;20206;-58
2022/03/15 00:15:48;;;;;;;8.47;7.63;;;4.40;99.90;;;5.40;81.22;99056.28;5202738;28;20206;-57
2022/03/15 00:18:21;;;;;;;8.53;7.73;;;4.40;99.90;;;5.34;80.66;99043.03;5201704;28;20225;-57
2022/03/15 00:20:54;;;;;;;8.40;7.63;;;4.30;99.90;;;5.24;80.52;99042.91;5200400;28;20664;-57
2022/03/15 00:23:28;;;;;;;7.97;7.20;;;4.30;99.90;;;5.15;81.02;99043.81;5198818;28;20202;-58
2022/03/15 00:26:01;;;;;;;9.03;7.97;;;4.20;99.90;;;5.17;81.95;99051.53;5197763;28;20686;-58
2022/03/15 00:28:35;;;;;;;8.73;7.93;;;4.30;99.90;;;5.20;82.33;99046.75;5196928;28;20217;-57
2022/03/15 00:31:10;;;;;;;9.40;8.53;;;4.30;99.90;;;5.12;82.71;99040.06;5201184;28;20221;-57
2022/03/15 00:33:43;;;;;;;9.07;8.17;;;4.30;99.90;;;5.10;83.25;99039.94;5202440;28;20581;-55
2022/03/15 00:36:16;;;;;;;9.20;8.40;;;4.30;99.90;;;5.04;83.05;99034.28;5204320;28;20692;-56
2022/03/15 00:38:50;;;;;;;9.03;8.13;;;4.30;99.90;;;5.04;82.65;99033.38;5205813;28;20226;-54
2022/03/15 00:41:23;;;;;;;9.47;8.47;;;4.20;99.90;;;5.09;82.38;99039.75;5205187;28;20201;-56
2022/03/15 00:43:56;;;;;;;8.37;7.57;;;4.20;99.90;;;5.11;82.24;99045.88;5204709;28;20200;-56
2022/03/15 00:46:30;;;;;;;8.13;7.33;;;4.20;99.90;;;5.17;81.97;99047.38;5205239;28;20208;-57
2022/03/15 00:49:03;;;;;;;8.47;7.70;;;4.20;99.90;;;5.19;81.89;99045.88;5201027;28;20248;-54
2022/03/15 00:51:37;;;;;;;9.20;8.20;;;4.20;99.90;;;5.24;81.69;99036.19;5199040;28;20248;-54
2022/03/15 00:54:10;;;;;;;8.60;7.80;;;4.20;99.90;;;5.12;82.47;99042.59;5203253;28;20194;-55
2022/03/15 00:56:44;;;;;;;8.33;7.47;;;4.20;99.90;;;5.01;82.38;99048.25;5204503;28;20202;-55
2022/03/15 00:59:17;;;;;;;9.07;8.23;;;4.10;99.90;;;4.93;81.96;99035.75;5203924;28;20220;-54
2022/03/15 01:01:52;;;;;;;8.57;7.77;;;4.00;99.90;;;4.94;82.30;99039.16;5200684;28;20191;-53
2022/03/15 01:04:25;;;;;;;9.27;8.47;;;4.10;99.90;;;4.92;82.68;99035.59;5203468;28;20208;-54
2022/03/15 01:06:58;;;;;;;8.87;8.03;;;4.10;99.90;;;4.83;82.39;99030.50;5203337;28;20220;-53
2022/03/15 01:09:31;;;;;;;9.50;8.43;;;4.10;99.90;;;4.91;82.62;99027.09;5200508;28;20235;-53
2022/03/15 01:12:06;;;;;;;8.83;8.03;;;4.10;99.90;;;4.90;82.93;99012.66;5202705;28;20232;-54
2022/03/15 01:14:39;;;;;;;8.67;7.80;;;4.10;99.90;;;4.86;82.92;99002.94;5204643;28;20568;-53
2022/03/15 01:17:14;;;;;;;9.23;8.33;;;4.00;99.90;;;4.84;83.02;98999.41;5201416;28;20208;-57
2022/03/15 01:19:47;;;;;;;8.13;7.07;;;4.00;99.90;;;4.91;83.31;99003.41;5201294;28;20217;-55
2022/03/15 01:22:20;;;;;;;8.77;7.93;;;4.10;99.90;;;4.82;83.31;99005.06;5200870;28;20197;-55
2022/03/15 01:24:53;;;;;;;8.43;7.63;;;4.00;99.90;;;4.81;83.28;99006.69;5202641;28;20589;-55
2022/03/15 01:27:26;;;;;;;8.17;7.20;;;3.90;99.90;;;4.87;83.22;99006.41;5203694;28;20203;-57
2022/03/15 01:29:59;;;;;;;8.13;7.33;;;4.00;99.90;;;4.72;82.94;99010.84;5202950;28;20253;-54
2022/03/15 01:32:34;;;;;;;8.77;7.70;;;3.90;99.90;;;4.70;84.21;99008.16;5204177;28;20221;-57
2022/03/15 01:35:08;;;;;;;8.27;7.50;;;3.90;99.90;;;4.70;83.74;98989.56;5202670;28;20195;-53
2022/03/15 01:37:41;;;;;;;9.40;8.60;;;3.90;99.90;;;4.75;83.97;98985.84;5199599;28;20210;-55
2022/03/15 01:40:14;;;;;;;12.00;9.00;;;4.00;99.90;;;4.78;84.22;98980.16;5199976;28;20584;-54
2022/03/15 01:42:47;;;;;;;8.97;8.00;;;4.10;99.90;;;4.87;84.39;98978.53;5203026;28;20666;-56
2022/03/15 01:45:20;;;;;;;8.57;7.77;;;4.10;99.90;;;4.96;84.03;98977.78;5202721;28;20203;-55
2022/03/15 01:47:55;;;;;;;8.83;8.07;;;4.20;99.90;;;4.98;84.13;98980.47;5202067;28;20674;-57
2022/03/15 01:50:28;;;;;;;8.93;8.10;;;4.20;99.90;;;4.96;84.54;98979.44;5202899;28;20205;-55
2022/03/15 01:53:01;;;;;;;8.97;8.00;;;4.20;99.90;;;4.97;83.98;98974.50;5202448;28;20204;-55
2022/03/15 01:55:35;;;;;;;8.90;8.03;;;4.20;99.90;;;4.99;83.57;98978.84;5202251;28;20207;-57
2022/03/15 01:58:09;;;;;;;9.03;8.23;;;4.10;99.90;;;4.88;83.29;98966.00;5203018;28;20228;-56
2022/03/15 02:00:42;;;;;;;8.83;8.03;;;4.10;99.90;;;4.96;83.98;98975.25;5199611;28;20295;-55
2022/03/15 02:03:16;;;;;;;8.87;8.17;;;4.10;99.90;;;5.06;84.02;98963.47;5198845;28;20588;-56
2022/03/15 02:05:49;;;;;;;8.47;7.67;;;4.20;99.90;;;5.11;83.43;98974.94;5199766;28;20244;-56
2022/03/15 02:08:22;;;;;;;7.83;7.23;;;4.20;99.90;;;5.12;83.26;98961.50;5197970;28;20238;-57
2022/03/15 02:10:55;;;;;;;8.10;7.33;;;4.20;99.90;;;5.01;83.02;98957.03;5202075;28;20768;-55
2022/03/15 02:13:29;;;;;;;8.60;7.80;;;4.10;99.90;;;4.83;83.36;98946.03;5200872;28;20251;-57
2022/03/15 02:16:02;;;;;;;8.77;7.67;;;4.00;99.90;;;4.79;84.70;98955.00;5202758;28;20194;-57
2022/03/15 02:18:42;;;;;;;8.40;7.70;;;4.00;99.90;;;4.81;84.97;98958.59;5200612;28;20971;-56
2022/03/15 02:21:17;;;;;;;7.83;7.13;;;4.00;99.90;;;4.82;84.50;98955.28;5201544;28;20206;-57
2022/03/15 02:23:50;;;;;;;8.00;7.40;;;4.00;99.90;;;4.91;84.44;98951.09;5204882;28;20677;-57
2022/03/15 02:26:23;;;;;;;8.53;7.73;;;4.00;99.90;;;4.96;83.78;98936.34;5202255;28;20209;-55
2022/03/15 02:28:56;;;;;;;7.90;7.27;;;4.00;99.90;;;4.91;83.84;98945.16;5204023;28;20220;-56
2022/03/15 02:31:29;;;;;;;7.70;7.00;;;4.00;99.90;;;4.81;84.09;98947.53;5203755;28;20226;-56
2022/03/15 02:34:02;;;;;;;7.87;7.20;;;3.90;99.90;;;4.76;84.45;98942.03;5206734;28;20562;-53
2022/03/15 02:36:37;;;;;;;7.70;6.90;;;3.90;99.90;;;4.78;84.53;98949.75;5205573;28;20203;-56
2022/03/15 02:39:11;;;;;;;8.07;7.37;;;4.00;99.90;;;4.81;84.31;98947.53;5205857;28;20231;-55
2022/03/15 02:41:44;;;;;;;7.43;6.73;;;4.00;99.90;;;4.86;84.04;98951.41;5205550;28;20658;-56
2022/03/15 02:44:17;;;;;;;8.10;7.30;;;3.90;99.90;;;4.82;84.45;98947.69;5205496;28;20208;-58
2022/03/15 02:46:51;;;;;;;8.07;7.37;;;4.00;99.90;;;4.78;84.52;98934.56;5205236;28;20201;-56
2022/03/15 02:49:24;;;;;;;8.87;8.07;;;4.00;99.90;;;4.80;84.64;98939.03;5205830;28;20223;-57
2022/03/15 02:51:59;;;;;;;8.97;7.27;;;3.90;99.90;;;4.83;84.42;98936.81;5205932;28;20230;-57
2022/03/15 02:54:32;;;;;;;8.77;7.97;;;4.00;99.90;;;4.80;84.50;98931.44;5205784;28;20201;-53
2022/03/15 02:57:07;;;;;;;8.23;7.37;;;4.00;99.90;;;4.86;84.52;98936.22;5205153;28;20568;-56
2022/03/15 02:59:42;;;;;;;8.67;7.80;;;4.00;99.90;;;4.94;84.28;98926.06;5205511;28;20223;-57
2022/03/15 03:02:15;;;;;;;9.20;8.30;;;4.00;99.90;;;5.08;83.33;98926.50;5204031;28;20649;-55
2022/03/15 03:04:49;;;;;;;8.50;7.60;;;4.00;99.90;;;4.93;84.27;98926.81;5204203;28;20199;-55
2022/03/15 03:07:24;;;;;;;8.13;7.43;;;4.00;99.90;;;4.82;84.84;98935.03;5206085;28;20218;-53
2022/03/15 03:09:57;;;;;;;7.53;6.87;;;4.00;99.90;;;4.79;85.52;98934.72;5204304;28;20235;-54
2022/03/15 03:12:30;;;;;;;8.53;7.37;;;4.00;99.90;;;4.78;85.17;98926.97;5206113;28;20601;-52
2022/03/15 03:15:05;;;;;;;8.10;7.40;;;3.90;99.90;;;4.77;85.04;98926.09;5205546;28;20206;-55
2022/03/15 03:17:41;;;;;;;8.83;8.00;;;3.90;99.90;;;4.74;85.63;98933.38;5206475;28;20194;-55
2022/03/15 03:20:21;;;;;;;8.23;7.43;;;3.90;99.90;;;4.76;85.13;98939.50;5204719;28;20207;-57
2022/03/15 03:22:58;;;;;;;8.07;7.47;;;3.90;99.90;;;4.81;85.06;98938.31;5203779;28;20200;-57
2022/03/15 03:25:32;;;;;;;10.00;7.90;;;4.00;99.90;;;4.85;84.83;98939.50;5204147;28;20192;-54
2022/03/15 03:28:06;;;;;;;9.07;7.37;;;3.90;99.90;;;4.82;84.47;98929.97;5204696;28;20226;-55
2022/03/15 03:30:41;;;;;;;7.83;7.20;;;4.00;99.90;;;4.84;84.73;98923.41;5205722;28;20201;-57
2022/03/15 03:33:14;;;;;;;8.27;7.57;;;3.90;99.90;;;4.82;86.21;98922.38;5202899;28;20230;-57
2022/03/15 03:35:49;;;;;;;7.07;6.40;;;4.00;99.90;;;4.81;85.58;98919.66;5203234;28;20206;-54
2022/03/15 03:38:24;;;;;;;6.80;6.20;;;4.00;99.90;;;4.85;85.19;98912.53;5203776;28;20231;-55
2022/03/15 03:40:57;;;;;;;7.13;6.43;;;4.00;99.90;;;4.85;85.36;98906.56;5202173;28;20204;-57
2022/03/15 03:43:31;;;;;;;6.83;6.13;;;3.90;99.90;;;4.80;85.83;98906.13;5205979;28;20194;-57
2022/03/15 03:46:04;;;;;;;6.70;6.03;;;3.90;99.90;;;4.78;85.92;98901.66;5204351;28;20200;-56
2022/03/15 03:48:37;;;;;;;7.60;6.97;;;4.00;99.90;;;4.87;85.47;98908.50;5203848;28;20243;-57
2022/03/15 03:51:12;;;;;;;6.90;6.20;;;4.00;99.90;;;4.90;85.30;98908.81;5204048;28;20202;-56
2022/03/15 03:53:46;;;;;;;6.93;6.40;;;4.00;99.90;;;4.94;84.78;98909.97;5204492;28;20694;-56
2022/03/15 03:56:20;;;;;;;7.33;6.60;;;4.00;99.90;;;4.99;84.72;98897.75;5204561;28;20699;-53
2022/03/15 03:58:53;;;;;;;7.03;6.33;;;4.00;99.90;;;4.99;84.68;98898.66;5205360;28;20220;-54
2022/03/15 04:01:26;;;;;;;7.33;6.73;;;4.00;99.90;;;5.04;84.45;98900.00;5203946;28;20195;-57
2022/03/15 04:04:05;;;;;;;7.47;6.77;;;4.00;99.90;;;4.88;85.46;98895.09;5205602;28;20588;-57
2022/03/15 04:06:39;;;;;;;7.40;6.63;;;4.10;99.90;;;4.87;84.80;98888.25;5202721;28;20286;-53
2022/03/15 04:09:14;;;;;;;6.57;6.07;;;4.00;99.90;;;4.82;84.94;98896.16;5203413;28;20261;-56
2022/03/15 04:11:47;;;;;;;7.23;6.63;;;3.90;99.90;;;4.74;85.77;98890.34;5201009;28;20228;-58
2022/03/15 04:14:20;;;;;;;7.60;7.00;;;3.90;99.90;;;4.77;85.85;98885.56;5205133;28;20201;-57
2022/03/15 04:16:54;;;;;;;7.23;6.63;;;3.90;99.90;;;4.75;85.91;98887.09;5204129;28;20196;-57
2022/03/15 04:19:27;;;;;;;7.10;6.40;;;3.90;99.90;;;4.78;85.94;98881.38;5201486;28;20230;-56
2022/03/15 04:22:00;;;;;;;7.77;7.17;;;3.90;99.90;;;4.84;85.64;98882.88;5203932;28;20544;-56
2022/03/15 04:24:35;;;;;;;8.00;7.20;;;4.00;99.90;;;4.81;85.57;98887.66;5205634;28;20203;-57
2022/03/15 04:27:08;;;;;;;8.20;7.50;;;4.00;99.90;;;4.82;85.27;98878.41;5204368;28;20196;-57
2022/03/15 04:29:41;;;;;;;7.87;6.87;;;4.00;99.90;;;4.81;85.86;98881.69;5205407;28;20236;-58
2022/03/15 04:32:14;;;;;;;7.90;7.20;;;4.00;99.90;;;4.83;85.24;98892.84;5203014;28;20222;-57
2022/03/15 04:34:47;;;;;;;8.67;7.70;;;3.90;99.90;;;4.96;84.79;98891.66;5204237;28;20198;-55
2022/03/15 04:37:21;;;;;;;8.30;6.63;;;4.00;99.90;;;4.95;84.69;98889.88;5199363;28;20202;-54
2022/03/15 04:39:57;;;;;;;7.83;7.13;;;4.00;99.90;;;5.02;84.46;98890.44;5204940;28;20219;-54
2022/03/15 04:42:30;;;;;;;8.33;7.50;;;4.00;99.90;;;4.94;84.79;98885.53;5203498;28;20191;-56
2022/03/15 04:45:04;;;;;;;8.43;7.63;;;4.00;99.90;;;4.87;85.18;98888.25;5202915;28;20585;-57
2022/03/15 04:47:37;;;;;;;8.47;7.53;;;4.00;99.90;;;4.87;85.24;98890.78;5203507;28;20610;-56
2022/03/15 04:50:11;;;;;;;8.30;7.43;;;4.00;99.90;;;4.88;84.83;98890.03;5202864;28;20230;-57
2022/03/15 04:52:44;;;;;;;8.27;7.57;;;4.00;99.90;;;4.87;84.78;98890.78;5203603;28;20229;-55
2022/03/15 04:55:19;;;;;;;8.77;7.87;;;4.00;99.90;;;4.89;85.08;98894.38;5206399;28;20215;-55
2022/03/15 04:57:52;;;;;;;8.87;8.00;;;4.00;99.90;;;4.91;84.86;98889.41;5204007;28;20203;-56
2022/03/15 05:00:25;;;;;;;8.60;7.80;;;4.00;99.90;;;4.93;84.77;98893.00;5203165;28;20207;-58
2022/03/15 05:02:59;;;;;;;8.10;7.40;;;4.00;99.90;;;4.96;84.60;98891.66;5197117;28;20685;-57
2022/03/15 05:05:32;;;;;;;7.83;7.17;;;4.00;99.90;;;4.95;84.92;98889.88;5195514;28;20268;-54
2022/03/15 05:08:05;;;;;;;8.80;7.97;;;4.00;99.90;;;4.84;85.42;98893.03;5195017;28;20227;-55
2022/03/15 05:13:31;;;;;;;9.07;8.27;;;4.00;99.90;;;4.79;85.08;98894.22;5202215;28;20213;-53
2022/03/15 05:16:05;;;;;;;7.87;7.27;;;3.90;99.90;;;4.76;85.13;98888.84;5203326;28;20653;-54
2022/03/15 05:18:40;;;;;;;8.17;7.47;;;3.90;99.90;;;4.77;85.54;98883.03;5198554;28;20713;-55
2022/03/15 05:21:14;;;;;;;8.77;7.93;;;3.90;99.90;;;4.83;85.38;98876.03;5199695;28;20210;-52
2022/03/15 05:23:49;;;;;;;7.93;7.20;;;3.90;99.90;;;4.79;85.49;98880.66;5202503;28;20236;-53
2022/03/15 05:26:24;;;;;;;8.10;7.37;;;3.90;99.90;;;4.82;85.88;98881.84;5204349;28;20203;-53
2022/03/15 05:28:57;;;;;;;7.20;6.60;;;3.90;99.90;;;4.79;85.44;98884.09;5201848;28;20241;-55
2022/03/15 05:31:31;;;;;;;7.93;7.23;;;3.90;99.90;;;4.76;85.57;98876.19;5202381;28;20201;-54
2022/03/15 05:34:04;;;;;;;7.73;7.10;;;3.90;99.90;;;4.72;85.69;98876.63;5202612;28;20586;-53
2022/03/15 05:36:37;;;;;;;7.53;6.93;;;3.90;99.90;;;4.80;85.59;98879.91;5203425;28;20199;-53
2022/03/15 05:39:10;;;;;;;7.50;6.90;;;3.90;99.90;;;4.80;85.86;98880.78;5203954;28;20224;-53
2022/03/15 05:41:45;;;;;;;8.40;7.70;;;3.90;99.90;;;4.86;85.67;98877.94;5204991;28;20196;-54
2022/03/15 05:44:18;;;;;;;8.17;7.37;;;4.00;99.90;;;4.83;86.11;98876.03;5203335;28;20200;-55
2022/03/15 05:46:51;;;;;;;8.13;7.37;;;4.00;99.90;;;4.93;85.78;98875.28;5204020;28;20591;-53
2022/03/15 05:49:24;;;;;;;7.00;6.40;;;4.00;99.90;;;4.92;85.96;98873.47;5201926;28;20217;-56
2022/03/15 05:51:59;;;;;;;6.33;5.63;;;4.00;99.90;;;4.92;85.16;98871.84;5203972;28;20656;-56
2022/03/15 05:54:32;;;;;;;7.20;6.60;;;4.00;99.90;;;4.79;85.47;98876.47;5204472;28;20587;-54
2022/03/15 05:57:07;;;;;;;9.43;8.47;;;3.90;99.90;;;4.76;85.49;98868.59;5203193;28;20204;-56
2022/03/15 05:59:40;;;;;;;8.33;7.53;;;3.90;99.90;;;4.70;86.05;98873.97;5207797;28;20225;-52
2022/03/15 06:02:13;;;;;;;7.40;6.73;;;3.80;99.90;;;4.77;85.85;98880.50;5207269;28;20208;-53
2022/03/15 06:04:47;;;;;;;6.80;6.20;;;3.90;99.90;;;4.81;85.97;98882.59;5203623;28;20534;-54
2022/03/15 06:07:20;;;;;;;6.67;5.97;;;3.90;99.90;;;4.87;86.42;98879.75;5203674;28;20424;-53
2022/03/15 06:09:53;;;;;;;7.00;6.40;;;4.10;99.90;;;4.98;86.30;98876.59;5203536;28;20233;-52
2022/03/15 06:12:27;;;;;;;8.13;6.73;;;4.10;99.90;;;5.06;86.07;98877.31;5202553;28;20665;-55
2022/03/15 06:15:00;;;;;;;7.97;6.90;;;4.20;99.90;;;5.25;85.38;98868.16;5201050;28;20252;-53
2022/03/15 06:17:42;;;;;;;8.20;7.30;;;4.30;99.90;;;5.28;85.17;98868.44;5193317;28;20681;-54
2022/03/15 06:20:18;;;;;;;8.30;7.50;;;4.40;99.90;;;5.31;85.20;98872.91;5195759;28;20195;-56
2022/03/15 06:22:51;;;;;;;7.80;7.00;;;4.40;99.90;;;5.33;84.86;98877.38;5199969;28;20562;-55
2022/03/15 06:25:25;;;;;;;7.93;7.23;;;4.30;99.90;;;5.27;85.03;98869.22;5201902;28;20651;-55
2022/03/15 06:27:59;;;;;;;8.77;7.60;;;4.40;99.90;;;5.31;84.80;98876.34;5204101;28;20201;-54
2022/03/15 06:30:32;;;;;;;9.00;8.07;;;4.40;99.90;;;5.34;84.61;98876.63;5203007;28;20487;-55
2022/03/15 06:33:06;;;;;;;8.23;7.43;;;4.40;99.90;;;5.29;84.48;98875.28;5204400;28;20292;-55
2022/03/15 06:35:39;;;;;;;8.30;7.43;;;4.40;99.90;;;5.26;84.90;98866.53;5201365;28;20208;-53
2022/03/15 06:38:12;;;;;;;7.87;7.27;;;4.40;99.90;;;5.34;84.87;98865.59;5204085;28;20236;-53
2022/03/15 06:40:47;;;;;;;8.63;7.93;;;4.50;99.90;;;5.36;84.80;98859.03;5204018;28;20209;-53
2022/03/15 06:43:22;;;;;;;9.43;8.40;;;4.50;99.90;;;5.37;84.75;98860.81;5201538;28;20289;-54
2022/03/15 06:45:56;;;;;;;8.73;7.83;;;4.50;99.90;;;5.47;84.88;98866.00;5203532;28;20196;-55
2022/03/15 06:48:29;;;;;;;9.63;8.63;;;4.70;99.90;;;5.62;84.65;98866.53;5196928;28;20629;-55
2022/03/15 06:51:02;;;;;;;9.17;8.37;;;4.70;99.90;;;5.75;84.45;98879.59;5194228;28;20658;-57
2022/03/15 06:53:35;;;;;;;8.80;7.63;;;4.80;99.90;;;5.74;83.81;98872.72;5194606;28;20233;-54
2022/03/15 06:56:09;;;;;;;8.50;7.23;;;4.80;99.90;;;5.82;83.90;98875.97;5194715;28;20203;-57
2022/03/15 06:58:44;;;;;;;9.07;8.00;;;4.90;99.90;;;5.90;83.47;98876.69;5194203;28;20220;-55
2022/03/15 07:01:17;;;;;;;8.07;7.27;;;5.00;99.90;;;5.90;83.47;98875.03;5193549;28;20197;-56
2022/03/15 07:03:50;;;;;;;7.97;7.17;;;5.00;99.90;;;6.00;83.03;98876.78;5194185;28;20206;-56
2022/03/15 07:06:24;;;;;;;10.47;7.60;;;5.00;99.90;;;5.95;83.09;98878.91;5195766;28;20194;-56
2022/03/15 07:08:57;;;;;;;8.83;7.90;;;5.10;99.90;;;6.06;83.13;98879.88;5192734;28;20227;-57
2022/03/15 07:11:30;;;;;;;9.97;8.00;;;5.20;99.90;;;6.18;82.93;98881.00;5193662;28;20731;-56
2022/03/15 07:14:04;;;;;;;8.13;7.43;;;5.30;99.90;;;6.25;83.55;98874.81;5196001;28;20218;-53
2022/03/15 07:16:37;;;;;;;7.83;7.13;;;5.40;99.90;;;6.46;82.82;98875.84;5193305;28;20216;-55
2022/03/15 07:19:11;;;;;;;7.13;6.53;;;5.50;99.90;;;6.48;82.49;98870.16;5197068;28;20222;-56
2022/03/15 07:21:44;;;;;;;7.07;6.43;;;5.60;99.90;;;6.54;81.69;98864.72;5198391;28;20333;-54
2022/03/15 07:24:17;;;;;;;7.17;6.57;;;5.60;99.90;;;6.65;81.17;98864.03;5200948;28;20266;-54
2022/03/15 07:26:50;;;;;;;9.90;9.00;;;5.60;99.90;;;6.60;81.86;98870.34;5200465;28;20697;-57
2022/03/15 07:29:24;;;;;;;9.00;8.10;;;5.70;99.90;;;6.60;81.33;98872.88;5196137;28;20229;-56
2022/03/15 07:31:58;;;;;;;9.17;8.37;;;5.70;99.90;;;6.56;81.98;98868.31;5195941;28;20216;-56
2022/03/15 07:34:31;;;;;;;10.17;9.10;;;5.70;99.90;;;6.63;80.98;98873.16;5197551;28;20800;-57
2022/03/15 07:37:05;;;;;;;9.57;8.70;;;5.70;99.90;;;6.74;80.99;98879.19;5198954;28;20198;-53
2022/03/15 07:39:38;;;;;;;9.63;8.67;;;5.80;99.90;;;6.77;81.00;98870.19;5200575;28;20222;-57
2022/03/15 07:42:11;;;;;;;9.97;8.97;;;5.90;99.90;;;6.87;79.81;98871.91;5198677;28;20206;-55
2022/03/15 07:44:45;;;;;;;10.63;8.20;;;5.90;99.90;;;6.84;81.39;98871.63;5202556;28;20284;-56
2022/03/15 07:47:18;;;;;;;9.17;8.27;;;6.00;99.90;;;6.93;80.88;98854.63;5196240;28;20205;-54
2022/03/15 07:49:53;;;;;;;11.63;8.77;;;6.10;99.90;;;7.06;80.39;98848.97;5200186;28;20577;-56
2022/03/15 07:52:26;;;;;;;9.83;8.37;;;6.20;99.90;;;7.17;80.17;98840.59;5198747;28;20209;-56
2022/03/15 07:54:59;;;;;;;11.53;7.73;;;6.30;99.90;;;7.40;78.68;98849.31;5198213;28;20244;-54
2022/03/15 07:57:32;;;;;;;8.73;7.93;;;6.50;99.90;;;7.34;79.10;98846.25;5198906;28;20222;-54
2022/03/15 08:00:09;;;;;;;9.10;8.30;;;6.50;99.90;;;7.32;79.35;98843.56;5196661;28;20226;-55
2022/03/15 08:02:42;;;;;;;9.60;8.80;;;6.50;99.90;;;7.35;79.96;98832.75;5198463;28;20275;-55
2022/03/15 08:05:15;;;;;;;10.73;9.40;;;6.50;99.90;;;7.39;79.70;98829.75;5198729;28;20219;-55
2022/03/15 08:07:48;;;;;;;10.40;9.30;;;6.50;99.90;;;7.44;79.83;98816.66;5202677;28;20583;-57
2022/03/15 08:10:22;;;;;;;9.90;8.90;;;6.60;99.90;;;7.52;79.35;98814.72;5197772;28;20210;-56
2022/03/15 08:12:55;;;;;;;25.80;19.53;;;6.60;99.90;;;7.47;79.34;98822.72;5197238;28;20206;-54
2022/03/15 08:15:29;;;;;;;21.03;15.40;;;6.70;99.90;;;7.49;79.35;98822.09;5198027;28;20232;-53
2022/03/15 08:18:03;;;;;;;16.60;11.93;;;6.60;99.90;;;7.51;79.17;98812.97;5197573;28;20197;-54
2022/03/15 08:20:39;;;;;;;11.60;8.63;;;6.60;99.90;;;7.77;77.35;98819.34;5195594;28;20208;-55
2022/03/15 08:23:12;;;;;;;10.80;8.60;;;6.80;99.90;;;7.69;77.71;98816.16;5201390;28;20624;-57
2022/03/15 08:25:45;;;;;;;8.43;7.63;;;6.80;99.90;;;7.71;77.76;98813.75;5205411;28;20201;-55
2022/03/15 08:28:18;;;;;;;8.73;7.83;;;6.80;99.90;;;7.83;77.33;98812.22;5210254;28;20226;-53
2022/03/15 08:30:53;;;;;;;9.00;8.10;;;6.90;99.90;;;7.94;77.17;98803.81;5200917;28;20198;-55
2022/03/15 08:33:27;;;;;;;9.83;8.93;;;7.00;99.90;;;8.03;76.88;98798.59;5196534;28;20217;-54
2022/03/15 08:36:00;;;;;;;9.33;8.40;;;7.10;99.90;;;8.11;76.15;98798.44;5202854;28;20619;-55
2022/03/15 08:38:34;;;;;;;9.50;8.47;;;7.10;99.90;;;8.15;75.91;98793.59;5201654;28;20594;-56
2022/03/15 08:41:08;;;;;;;9.77;8.70;;;7.20;99.90;;;8.23;76.26;98802.75;5204448;28;20198;-55
2022/03/15 08:43:41;;;;;;;9.40;8.43;;;7.30;99.90;;;8.40;76.11;98787.22;5204227;28;20650;-55
2022/03/15 08:46:16;;;;;;;11.33;8.77;;;7.50;99.90;;;8.64;76.25;98797.56;5197954;28;20565;-57
2022/03/15 08:48:49;;;;;;;11.60;9.67;;;7.80;99.90;;;8.96;74.49;98793.38;5199160;28;20319;-54
2022/03/15 08:51:22;;;;;;;9.63;8.73;;;8.00;99.90;;;9.15;72.92;98785.47;5197169;28;20650;-54
2022/03/15 08:53:55;;;;;;;10.30;9.00;;;8.20;99.90;;;9.36;71.67;98793.91;5195414;28;20205;-53
2022/03/15 08:56:29;;;;;;;9.77;8.80;;;8.50;99.90;;;9.50;71.67;98788.97;5195259;28;20597;-55
2022/03/15 08:59:02;;;;;;;9.47;8.57;;;8.60;99.90;;;9.62;70.50;98790.78;5204266;28;20584;-53
2022/03/15 09:01:37;;;;;;;9.70;8.00;;;8.60;99.90;;;9.73;70.42;98781.41;5196618;28;20190;-52
2022/03/15 09:04:11;;;;;;;9.10;8.17;;;8.80;99.90;;;9.97;69.12;98789.09;5202606;28;20190;-56
2022/03/15 09:06:44;;;;;;;9.13;8.23;;;8.90;99.90;;;10.02;68.34;98795.44;5199307;28;20674;-53
2022/03/15 09:09:19;;;;;;;9.50;8.60;;;8.90;99.90;;;10.17;66.83;98788.91;5204244;28;20225;-57
2022/03/15 09:11:52;;;;;;;9.40;8.57;;;9.00;99.90;;;10.18;67.42;98777.91;5200426;28;20197;-54
2022/03/15 09:14:25;;;;;;;11.33;8.63;;;9.10;99.90;;;10.32;66.68;98767.06;5204936;28;20212;-52
2022/03/15 09:17:00;;;;;;;8.90;8.10;;;9.10;99.90;;;10.26;66.72;98768.25;5205687;28;20198;-57
2022/03/15 09:19:33;;;;;;;9.20;8.20;;;9.10;99.90;;;10.38;66.50;98782.81;5202899;28;20304;-52
2022/03/15 09:22:07;;;;;;;11.47;8.73;;;9.30;99.90;;;10.49;66.09;98775.94;5202290;28;20194;-54
2022/03/15 09:24:40;;;;;;;9.23;8.33;;;9.30;99.90;;;10.58;66.23;98773.16;5204394;28;20201;-54
2022/03/15 09:27:13;;;;;;;9.63;8.70;;;9.30;99.90;;;10.72;64.71;98777.59;5200125;28;20220;-55
2022/03/15 09:29:46;;;;;;;9.60;8.27;;;9.40;99.90;;;10.72;65.36;98769.91;5202238;28;20225;-57
2022/03/15 09:32:20;;;;;;;9.57;8.67;;;9.60;99.90;;;10.86;64.84;98768.34;5204864;28;20208;-54
2022/03/15 09:34:54;;;;;;;9.23;8.20;;;9.70;99.90;;;10.90;64.23;98766.88;5202975;28;20222;-56
2022/03/15 09:37:27;;;;;;;10.50;8.20;;;9.80;99.90;;;10.96;63.49;98762.19;5203411;28;20201;-56
2022/03/15 09:40:00;;;;;;;8.73;7.93;;;9.90;99.90;;;10.99;62.32;98763.31;5202807;28;20218;-56
2022/03/15 09:42:36;;;;;;;9.15;8.32;;;9.90;99.90;;;11.06;61.69;98756.94;5203539;28;20202;-55
2022/03/15 09:45:09;;;;;;;10.23;8.40;;;9.90;99.90;;;11.06;61.29;98754.38;5204804;28;20190;-54
2022/03/15 09:47:46;;;;;;;9.73;8.83;;;9.90;99.90;;;11.11;60.82;98745.38;5202814;28;20911;-54
2022/03/15 09:50:21;;;;;;;8.98;8.07;;;9.80;99.90;;;11.08;60.97;98740.03;5202857;28;20661;-55
2022/03/15 09:52:56;;;;;;;8.93;8.23;;;9.90;99.90;;;10.99;61.92;98736.84;5201426;28;20200;-57
2022/03/15 09:55:30;;;;;;;9.57;8.57;;;9.90;99.90;;;11.07;61.97;98738.25;5203696;28;20618;-55
2022/03/15 09:58:04;;;;;;;8.60;7.70;;;10.00;99.90;;;11.20;61.57;98738.31;5203540;28;20193;-55
2022/03/15 10:00:38;;;;;;;9.77;8.73;;;10.10;99.90;;;11.33;61.36;98729.81;5204016;28;20204;-54
2022/03/15 10:03:15;;;;;;;9.10;8.20;;;10.10;99.90;;;11.35;60.71;98727.34;5204256;28;20201;-56
2022/03/15 10:05:50;;;;;;;10.70;8.27;;;10.20;99.90;;;11.41;60.45;98720.09;5204172;28;20713;-54
2022/03/15 10:08:23;;;;;;;10.13;8.55;;;10.20;99.90;;;11.37;60.65;98711.31;5202757;28;20236;-56
2022/03/15 10:10:56;;;;;;;9.80;8.75;;;10.30;99.90;;;11.39;60.86;98703.72;5203435;28;20198;-54
2022/03/15 10:13:30;;;;;;;10.90;7.88;;;10.30;99.90;;;11.36;61.23;98693.28;5203940;28;20563;-53
2022/03/15 10:16:03;;;;;;;9.40;8.40;;;10.30;99.90;;;11.44;60.47;98694.69;5203888;28;20226;-56
2022/03/15 10:18:38;;;;;;;8.70;7.78;;;10.40;99.90;;;11.44;60.40;98692.13;5200872;28;20220;-54
2022/03/15 10:21:11;;;;;;;8.88;8.07;;;10.40;99.90;;;11.45;60.58;98684.56;5202468;28;20206;-58
2022/03/15 10:23:44;;;;;;;9.07;8.15;;;10.40;99.90;;;11.57;60.91;98676.81;5203566;28;20578;-58
2022/03/15 10:26:24;;;;;;;9.73;7.93;;;10.50;99.90;;;11.62;60.13;98675.44;5204898;28;20202;-57
2022/03/15 10:28:58;;;;;;;8.55;7.75;;;10.60;99.90;;;11.66;59.91;98668.84;5204079;28;20308;-54
2022/03/15 10:31:31;;;;;;;9.73;8.73;;;10.50;99.90;;;11.69;59.78;98664.81;5203983;28;20201;-56
2022/03/15 10:34:09;;;;;;;8.55;7.68;;;10.50;99.90;;;11.70;59.20;98651.25;5203678;28;20197;-55
2022/03/15 10:36:44;;;;;;;8.48;7.65;;;10.60;99.90;;;11.72;58.62;98651.31;5204417;28;20606;-57
2022/03/15 10:39:20;;;;;;;8.63;7.68;;;10.60;99.90;;;11.75;58.25;98636.16;5204102;28;20232;-55
2022/03/15 10:41:55;;;;;;;8.50;7.57;;;10.70;99.90;;;11.75;58.59;98627.59;5204248;28;20206;-54
2022/03/15 10:44:33;;;;;;;8.55;7.70;;;10.70;99.90;;;11.80;59.20;98627.09;5204132;28;20209;-53
2022/03/15 10:47:12;;;;;;;8.95;8.05;;;10.80;99.90;;;11.80;59.25;98613.41;5204333;28;20198;-56
2022/03/15 10:49:54;;;;;;;7.85;7.05;;;10.80;99.90;;;11.86;59.08;98606.16;5202028;28;20668;-57
2022/03/15 10:52:34;;;;;;;8.73;7.15;;;10.80;99.90;;;11.87;58.61;98598.53;5209014;28;20581;-56
2022/03/15 10:55:13;;;;;;;8.63;7.65;;;10.80;99.90;;;11.92;58.60;98606.53;5207685;28;20228;-57
2022/03/15 10:57:52;;;;;;;8.27;7.28;;;10.90;99.90;;;12.03;58.11;98602.97;5206890;28;20202;-57
2022/03/15 11:00:27;;;;;;;8.15;6.93;;;11.00;99.90;;;12.03;58.29;98607.22;5205594;28;20204;-57